Time;durP1;ratioP1;P1;durP2;ratioP2;P2;SDS_P1;SDS_P2;PMS_P1;PMS_P2;Temp;Humidity;BMP_temperature;BMP_pressure;BME280_temperature;BME280_humidity;BME280_pressure;Samples;Min_cycle;Max_cycle;Signal;HPM_P1;HPM_P2
2022/07/12 00:01:52;;;;;;;1.42;1.13;;;22.90;83.10;;;;;;4970883;28;20069;-85
2022/07/12 00:04:18;;;;;;;1.27;1.10;;;22.90;81.70;;;;;;4971163;28;20052;-93
2022/07/12 00:06:44;;;;;;;6.82;1.23;;;22.90;81.20;;;;;;4970062;28;20016;-94
2022/07/12 00:09:10;;;;;;;2.88;1.02;;;22.90;83.40;;;;;;4985776;28;20049;-86
2022/07/12 00:11:37;;;;;;;2.95;1.10;;;22.80;84.60;;;;;;4970672;28;20101;-93
2022/07/12 00:14:04;;;;;;;5.28;1.45;;;22.90;85.10;;;;;;4970867;28;20023;-93
2022/07/12 00:16:30;;;;;;;5.45;1.13;;;22.80;85.50;;;;;;4971624;28;20475;-93
2022/07/12 00:18:55;;;;;;;1.52;1.10;;;22.90;85.30;;;;;;4971122;28;20082;-85
2022/07/12 00:21:21;;;;;;;4.57;1.20;;;;;;;;;;4971833;28;20335;-88
2022/07/12 00:23:47;;;;;;;4.82;1.38;;;;;;;;;;4989574;28;20103;-87
2022/07/12 00:26:13;;;;;;;4.28;1.20;;;23.10;83.30;;;;;;4990969;28;20022;-85
2022/07/12 00:28:39;;;;;;;4.28;1.20;;;23.00;84.20;;;;;;4990841;28;20081;-85
2022/07/12 00:31:05;;;;;;;2.10;1.20;;;;;;;;;;4988602;28;20081;-84
2022/07/12 00:33:31;;;;;;;1.92;1.20;;;23.10;83.60;;;;;;4983936;28;20026;-94
2022/07/12 00:35:56;;;;;;;2.35;1.30;;;23.00;82.70;;;;;;4972737;28;20023;-92
2022/07/12 00:38:22;;;;;;;5.07;1.20;;;23.00;83.80;;;;;;4970471;28;20439;-92
2022/07/12 00:40:49;;;;;;;5.82;1.30;;;23.00;82.90;;;;;;4971124;28;20383;-93
2022/07/12 00:43:15;;;;;;;4.72;1.08;;;23.00;82.60;;;;;;4970340;28;20025;-94
2022/07/12 00:45:41;;;;;;;1.65;1.13;;;23.00;82.80;;;;;;4969301;28;20011;-92
2022/07/12 00:48:07;;;;;;;2.92;1.20;;;23.00;83.00;;;;;;4969727;28;20046;-91
2022/07/12 00:50:34;;;;;;;2.58;1.23;;;23.10;83.10;;;;;;4971045;28;20015;-85
2022/07/12 00:52:59;;;;;;;6.25;1.25;;;23.10;82.90;;;;;;4971583;28;20517;-92
2022/07/12 00:55:26;;;;;;;9.35;1.38;;;23.00;82.70;;;;;;4970848;28;20094;-92
2022/07/12 00:57:51;;;;;;;4.40;1.30;;;23.00;83.00;;;;;;4970646;28;20041;-93
2022/07/12 01:00:21;;;;;;;2.47;1.30;;;23.10;82.70;;;;;;4970573;28;20105;-91
2022/07/12 01:02:47;;;;;;;2.88;1.48;;;23.10;82.40;;;;;;4969459;28;20058;-90
2022/07/12 01:05:14;;;;;;;1.67;1.10;;;;;;;;;;4970487;28;20435;-93
2022/07/12 01:07:40;;;;;;;2.45;1.10;;;23.00;83.00;;;;;;4970275;28;20558;-92
2022/07/12 01:10:07;;;;;;;1.40;1.10;;;23.00;84.10;;;;;;4970715;28;20057;-92
2022/07/12 01:12:34;;;;;;;5.43;1.27;;;22.90;83.80;;;;;;4971795;28;20018;-93
2022/07/12 01:15:00;;;;;;;3.13;1.30;;;22.90;83.80;;;;;;4986077;28;20513;-88
2022/07/12 01:17:27;;;;;;;5.05;1.30;;;22.90;83.60;;;;;;4970162;28;20163;-93
2022/07/12 01:19:57;;;;;;;1.83;0.97;;;22.80;84.40;;;;;;4970259;28;20023;-91
2022/07/12 01:22:27;;;;;;;8.55;1.50;;;22.70;84.90;;;;;;4967812;28;20758;-91
2022/07/12 01:24:53;;;;;;;3.13;1.25;;;22.70;84.30;;;;;;4970232;28;20022;-93
2022/07/12 01:27:19;;;;;;;2.72;1.27;;;22.70;85.20;;;;;;4969848;28;20110;-92
2022/07/12 01:29:45;;;;;;;1.30;1.20;;;22.70;86.00;;;;;;4970072;28;20031;-90
2022/07/12 01:32:26;;;;;;;1.42;1.13;;;22.70;85.40;;;;;;4985199;28;20050;-93
2022/07/12 01:34:53;;;;;;;3.13;1.15;;;22.60;86.20;;;;;;4968871;28;20023;-92
2022/07/12 01:37:21;;;;;;;3.53;1.13;;;22.60;86.30;;;;;;4968876;28;20074;-93
2022/07/12 01:39:49;;;;;;;6.77;1.57;;;22.50;86.90;;;;;;4968865;28;20030;-93
2022/07/12 01:42:15;;;;;;;3.80;1.13;;;22.50;86.20;;;;;;4970084;28;20019;-92
2022/07/12 01:44:41;;;;;;;4.53;1.30;;;22.50;84.70;;;;;;4969823;28;20045;-84
2022/07/12 01:47:07;;;;;;;5.68;1.38;;;;;;;;;;4969452;28;20105;-84
2022/07/12 01:49:33;;;;;;;5.63;1.50;;;22.50;87.10;;;;;;4985539;28;20054;-92
2022/07/12 01:51:59;;;;;;;1.75;1.25;;;22.50;86.80;;;;;;4968644;28;20077;-93
2022/07/12 01:54:25;;;;;;;3.28;1.30;;;22.50;87.30;;;;;;4968731;28;20492;-93
2022/07/12 01:56:54;;;;;;;2.60;1.60;;;22.40;87.60;;;;;;4972392;28;20023;-92
2022/07/12 01:59:21;;;;;;;2.20;1.20;;;22.40;87.60;;;;;;4973700;28;20034;-94
2022/07/12 02:01:47;;;;;;;2.40;1.20;;;22.40;86.50;;;;;;4973667;28;20019;-92
2022/07/12 02:04:16;;;;;;;3.70;1.40;;;22.40;87.20;;;;;;4988692;28;20033;-94
2022/07/12 02:06:44;;;;;;;4.47;1.27;;;22.30;85.90;;;;;;4973391;28;20022;-93
2022/07/12 02:09:10;;;;;;;6.68;1.48;;;22.30;85.40;;;;;;4973230;28;20041;-92
2022/07/12 02:11:36;;;;;;;1.63;1.45;;;22.30;86.80;;;;;;4974058;28;20034;-92
2022/07/12 02:14:01;;;;;;;2.30;1.20;;;22.30;87.00;;;;;;4973495;28;20023;-92
2022/07/12 02:16:27;;;;;;;6.40;1.40;;;22.20;85.00;;;;;;4973458;28;20618;-93
2022/07/12 02:18:53;;;;;;;3.85;1.50;;;22.20;85.70;;;;;;4971886;28;20035;-93
2022/07/12 02:21:18;;;;;;;3.63;1.52;;;22.10;87.10;;;;;;4972548;28;20023;-92
2022/07/12 02:23:44;;;;;;;4.88;1.23;;;22.10;85.70;;;;;;4973032;28;20404;-94
2022/07/12 02:26:09;;;;;;;6.68;1.35;;;22.00;88.70;;;;;;4973278;28;20034;-93
2022/07/12 02:28:35;;;;;;;5.88;1.50;;;22.00;86.40;;;;;;4974142;28;20034;-93
2022/07/12 02:31:01;;;;;;;2.22;1.80;;;21.90;88.10;;;;;;4973281;28;20037;-85
2022/07/12 02:33:27;;;;;;;3.22;1.40;;;21.80;89.90;;;;;;4973266;28;20031;-86
2022/07/12 02:35:52;;;;;;;3.03;1.30;;;21.80;89.70;;;;;;4973007;28;20031;-93
2022/07/12 02:38:20;;;;;;;1.90;1.30;;;21.80;90.90;;;;;;4973378;28;20368;-92
2022/07/12 02:40:54;;;;;;;5.13;1.35;;;21.70;90.60;;;;;;4973328;28;20373;-93
2022/07/12 02:43:21;;;;;;;5.78;1.30;;;21.70;90.50;;;;;;4973180;28;20109;-86
2022/07/12 02:45:47;;;;;;;1.97;1.30;;;21.60;90.20;;;;;;4972039;28;20077;-94
2022/07/12 02:48:13;;;;;;;3.90;1.40;;;21.60;90.00;;;;;;4972970;28;20026;-86
2022/07/12 02:50:39;;;;;;;2.78;1.45;;;21.50;91.60;;;;;;4973967;28;20123;-87
2022/07/12 02:53:09;;;;;;;4.10;1.50;;;21.40;93.50;;;;;;4973718;28;20057;-93
2022/07/12 02:55:35;;;;;;;2.58;1.30;;;21.30;92.50;;;;;;4972259;28;20030;-95
2022/07/12 02:58:01;;;;;;;2.40;1.50;;;;;;;;;;4973100;28;20031;-94
2022/07/12 03:00:28;;;;;;;1.55;1.40;;;21.10;94.00;;;;;;4973228;28;20499;-86
2022/07/12 03:02:54;;;;;;;2.53;1.38;;;21.10;93.20;;;;;;4972548;28;20031;-94
2022/07/12 03:05:19;;;;;;;2.47;1.58;;;21.00;93.90;;;;;;4972982;28;20026;-87
2022/07/12 03:07:45;;;;;;;9.82;1.60;;;21.00;94.30;;;;;;4984467;28;20027;-86
2022/07/12 03:10:11;;;;;;;2.97;1.50;;;20.90;95.70;;;;;;4991105;28;20018;-86
2022/07/12 03:12:37;;;;;;;4.25;1.58;;;20.90;94.20;;;;;;4993789;28;20095;-85
2022/07/12 03:15:04;;;;;;;4.15;1.65;;;20.80;95.10;;;;;;4987005;28;20027;-90
2022/07/12 03:17:30;;;;;;;4.10;1.50;;;20.80;95.50;;;;;;4981735;28;20019;-87
2022/07/12 03:19:55;;;;;;;3.40;1.40;;;20.80;95.80;;;;;;4973319;28;20460;-94
2022/07/12 03:22:21;;;;;;;5.40;1.70;;;20.80;95.10;;;;;;4987642;28;20074;-93
2022/07/12 03:24:47;;;;;;;1.23;1.20;;;20.70;97.10;;;;;;4972372;28;20525;-91
2022/07/12 03:27:12;;;;;;;1.85;1.30;;;20.70;95.60;;;;;;4972002;28;20038;-86
2022/07/12 03:29:39;;;;;;;2.55;1.42;;;20.70;95.40;;;;;;4973097;28;20027;-92
2022/07/12 03:32:06;;;;;;;7.43;1.70;;;20.60;97.70;;;;;;4987142;28;20029;-93
2022/07/12 03:34:32;;;;;;;6.22;1.55;;;;;;;;;;4972555;28;20023;-93
2022/07/12 03:36:58;;;;;;;2.17;1.30;;;20.60;96.60;;;;;;4972371;28;20025;-86
2022/07/12 03:39:24;;;;;;;1.50;1.40;;;20.50;97.60;;;;;;4972073;28;20451;-94
2022/07/12 03:41:50;;;;;;;6.22;1.67;;;20.50;97.90;;;;;;4972958;28;20022;-87
2022/07/12 03:44:15;;;;;;;2.63;1.40;;;20.50;97.20;;;;;;4971551;28;20042;-85
2022/07/12 03:46:41;;;;;;;6.20;1.50;;;20.50;97.30;;;;;;4972256;28;20023;-85
2022/07/12 03:49:08;;;;;;;3.38;1.63;;;20.50;99.90;;;;;;4971565;28;20399;-85
2022/07/12 03:51:33;;;;;;;2.80;1.42;;;20.50;99.90;;;;;;4971392;28;20105;-85
2022/07/12 03:53:59;;;;;;;2.30;1.40;;;20.50;98.00;;;;;;4971395;28;20110;-83
2022/07/12 03:59:09;;;;;;;9.40;1.67;;;20.50;98.60;;;;;;4971917;28;20403;-84
2022/07/12 04:01:35;;;;;;;5.15;1.40;;;20.50;99.10;;;;;;4971328;28;20034;-84
2022/07/12 04:04:02;;;;;;;4.10;1.40;;;20.50;98.30;;;;;;4971055;28;20046;-85
2022/07/12 04:06:28;;;;;;;5.10;1.50;;;20.50;98.30;;;;;;4971018;28;20019;-84
2022/07/12 04:08:53;;;;;;;3.70;1.50;;;20.50;99.90;;;;;;4971042;28;20027;-84
2022/07/12 04:11:19;;;;;;;6.93;1.70;;;20.40;99.20;;;;;;4970973;28;20074;-84
2022/07/12 04:13:44;;;;;;;5.63;1.30;;;20.40;99.80;;;;;;4970759;28;20070;-84
2022/07/12 04:16:10;;;;;;;3.30;1.50;;;20.40;99.40;;;;;;4971563;28;20033;-85
2022/07/12 04:18:36;;;;;;;5.97;1.67;;;20.40;98.50;;;;;;4968720;28;20399;-86
2022/07/12 04:21:01;;;;;;;3.22;1.50;;;20.30;99.30;;;;;;4970866;28;20050;-84
2022/07/12 04:23:27;;;;;;;4.53;1.55;;;20.30;99.50;;;;;;4970674;28;20023;-84
2022/07/12 04:25:52;;;;;;;4.10;1.50;;;20.30;99.70;;;;;;4970698;28;20483;-84
2022/07/12 04:28:18;;;;;;;3.75;1.63;;;20.30;99.90;;;;;;4970482;28;20031;-84
2022/07/12 04:30:46;;;;;;;4.10;1.48;;;20.30;99.90;;;;;;4960552;28;20037;-84
2022/07/12 04:33:12;;;;;;;;;;;20.30;99.90;;;;;;4957827;28;20046;-84
2022/07/12 04:35:37;;;;;;;1.85;1.40;;;20.30;99.90;;;;;;4960639;28;20378;-86
2022/07/12 04:38:04;;;;;;;4.20;1.60;;;20.30;99.90;;;;;;4979899;28;20043;-87
2022/07/12 04:40:30;;;;;;;1.83;1.35;;;20.30;99.90;;;;;;4969692;28;20054;-84
2022/07/12 04:42:56;;;;;;;4.25;1.50;;;20.30;99.90;;;;;;4975054;28;20066;-86
2022/07/12 04:45:22;;;;;;;9.57;1.88;;;20.20;99.90;;;;;;4961290;28;20439;-88
2022/07/12 04:47:48;;;;;;;4.65;1.40;;;20.30;99.90;;;;;;4971195;28;20538;-85
2022/07/12 04:50:14;;;;;;;2.63;1.70;;;20.30;99.90;;;;;;4957962;28;20114;-88
2022/07/12 04:52:39;;;;;;;5.32;1.65;;;20.30;99.90;;;;;;4951003;28;20472;-87
2022/07/12 04:55:06;;;;;;;2.13;1.48;;;20.40;99.90;;;;;;4950916;28;20338;-86
2022/07/12 04:57:32;;;;;;;6.65;1.80;;;20.40;99.90;;;;;;4950882;28;20487;-84
2022/07/12 04:59:58;;;;;;;7.53;1.55;;;20.50;99.90;;;;;;4950933;28;20035;-85
2022/07/12 05:02:24;;;;;;;6.78;1.48;;;20.50;99.90;;;;;;4951038;28;20023;-88
2022/07/12 05:04:49;;;;;;;10.02;2.33;;;20.50;99.90;;;;;;4949622;28;20027;-88
2022/07/12 05:07:15;;;;;;;5.18;1.65;;;20.60;99.90;;;;;;4951706;28;20032;-89
2022/07/12 05:09:41;;;;;;;9.35;1.70;;;20.60;99.90;;;;;;4950182;29;20443;-90
2022/07/12 05:12:07;;;;;;;5.65;1.60;;;20.60;99.90;;;;;;4951181;28;20595;-86
2022/07/12 05:14:33;;;;;;;11.32;1.98;;;20.60;99.90;;;;;;4951336;28;20035;-85
2022/07/12 05:16:58;;;;;;;9.50;1.50;;;20.70;99.90;;;;;;4951033;28;20033;-90
2022/07/12 05:19:24;;;;;;;2.78;1.63;;;20.70;99.90;;;;;;4950933;28;20039;-84
2022/07/12 05:21:50;;;;;;;14.65;2.22;;;20.80;99.90;;;;;;4950800;28;20106;-85
2022/07/12 05:24:16;;;;;;;13.30;2.22;;;20.80;99.90;;;;;;4951671;28;20367;-89
2022/07/12 05:26:41;;;;;;;33.08;3.40;;;20.90;99.90;;;;;;4964303;28;20031;-87
2022/07/12 05:29:07;;;;;;;44.03;3.15;;;20.90;99.90;;;;;;4970000;28;20102;-86
2022/07/12 05:31:33;;;;;;;17.38;2.22;;;21.00;99.90;;;;;;4973598;28;20443;-89
2022/07/12 05:33:59;;;;;;;17.13;2.38;;;21.00;99.90;;;;;;4973779;28;20026;-87
2022/07/12 05:36:26;;;;;;;11.55;2.00;;;21.10;99.90;;;;;;4974085;28;20050;-85
2022/07/12 05:38:51;;;;;;;10.93;2.13;;;21.10;99.90;;;;;;4973818;28;20031;-84
2022/07/12 05:41:18;;;;;;;8.93;1.98;;;21.20;99.90;;;;;;4973139;28;20053;-91
2022/07/12 05:43:46;;;;;;;16.42;2.10;;;21.20;99.90;;;;;;4989277;28;20056;-82
2022/07/12 05:46:12;;;;;;;7.15;1.70;;;21.30;99.90;;;;;;4972160;28;20475;-81
2022/07/12 05:48:38;;;;;;;9.75;1.80;;;21.30;99.90;;;;;;4973619;28;20260;-82
2022/07/12 05:53:49;;;;;;;11.23;2.15;;;21.40;99.90;;;;;;4973935;28;20030;-82
2022/07/12 05:56:14;;;;;;;11.02;1.67;;;21.50;99.90;;;;;;4974122;28;20383;-82
2022/07/12 05:58:40;;;;;;;4.50;1.52;;;21.50;99.90;;;;;;4973322;28;20399;-82
2022/07/12 06:01:06;;;;;;;6.18;1.60;;;21.60;99.90;;;;;;4973381;28;20158;-82
2022/07/12 06:03:32;;;;;;;6.65;1.77;;;21.70;99.90;;;;;;4988189;28;20027;-82
2022/07/12 06:05:59;;;;;;;11.23;1.60;;;21.70;99.90;;;;;;4973368;28;20027;-82
2022/07/12 06:08:25;;;;;;;4.32;2.05;;;21.80;99.90;;;;;;4973304;28;20027;-92
2022/07/12 06:10:50;;;;;;;4.13;1.77;;;21.80;99.90;;;;;;4972072;28;20029;-82
2022/07/12 06:13:16;;;;;;;5.15;1.58;;;21.90;99.90;;;;;;4973868;28;20050;-83
2022/07/12 06:15:42;;;;;;;5.00;1.63;;;21.90;99.90;;;;;;4972988;28;20603;-82
2022/07/12 06:18:07;;;;;;;4.35;1.80;;;22.00;99.90;;;;;;4972899;28;20553;-85
2022/07/12 06:20:33;;;;;;;5.68;1.48;;;22.10;99.90;;;;;;4972901;28;20018;-82
2022/07/12 06:22:59;;;;;;;4.38;1.77;;;22.10;99.90;;;;;;4972781;28;20031;-83
2022/07/12 06:25:25;;;;;;;17.83;1.98;;;22.10;99.90;;;;;;4972876;28;20468;-83
2022/07/12 06:27:51;;;;;;;5.65;1.80;;;22.20;99.90;;;;;;4972637;28;20027;-83
2022/07/12 06:30:18;;;;;;;7.95;1.63;;;22.30;99.90;;;;;;4973524;28;20030;-83
2022/07/12 06:32:47;;;;;;;5.57;1.53;;;22.30;99.90;;;;;;4972688;28;20023;-82
2022/07/12 06:35:14;;;;;;;12.38;1.80;;;22.40;99.90;;;;;;4972678;28;20030;-82
2022/07/12 06:37:41;;;;;;;5.53;1.75;;;22.40;99.90;;;;;;4972683;28;20033;-94
2022/07/12 06:40:08;;;;;;;8.02;1.60;;;22.50;99.90;;;;;;4972850;28;20030;-82
2022/07/12 06:42:34;;;;;;;7.70;1.58;;;22.60;99.90;;;;;;4971825;28;20427;-82
2022/07/12 06:45:01;;;;;;;7.05;1.63;;;22.60;99.90;;;;;;4972480;28;20541;-82
2022/07/12 06:47:27;;;;;;;5.53;1.70;;;22.60;99.90;;;;;;4972462;28;20065;-82
2022/07/12 06:49:52;;;;;;;6.10;1.58;;;22.70;99.90;;;;;;4972798;28;20022;-90
2022/07/12 06:52:18;;;;;;;8.00;1.60;;;22.70;99.90;;;;;;4973968;28;20513;-84
2022/07/12 06:54:44;;;;;;;5.55;1.40;;;22.80;99.90;;;;;;4972825;28;20031;-94
2022/07/12 06:57:10;;;;;;;3.53;1.60;;;22.80;99.90;;;;;;4971740;28;20207;-83
2022/07/12 06:59:36;;;;;;;3.95;1.40;;;22.90;99.90;;;;;;4972298;28;20069;-91
2022/07/12 07:02:02;;;;;;;4.78;1.70;;;22.90;99.90;;;;;;4972818;28;20030;-90
2022/07/12 07:04:28;;;;;;;9.88;1.70;;;23.00;99.90;;;;;;4972770;28;20031;-86
2022/07/12 07:06:54;;;;;;;6.85;1.73;;;23.10;99.90;;;;;;4970968;28;20030;-89
2022/07/12 07:09:20;;;;;;;7.67;1.97;;;23.10;99.90;;;;;;4969399;28;20113;-82
2022/07/12 07:11:46;;;;;;;9.75;1.85;;;23.20;99.90;;;;;;4970773;28;20427;-82
2022/07/12 07:14:12;;;;;;;6.85;1.88;;;23.30;99.90;;;;;;4970551;28;20590;-82
2022/07/12 07:16:37;;;;;;;3.00;1.60;;;23.30;99.90;;;;;;4971553;28;20081;-92
2022/07/12 07:19:03;;;;;;;11.27;1.90;;;23.40;99.90;;;;;;4971042;28;20060;-82
2022/07/12 07:21:29;;;;;;;3.90;1.50;;;23.50;99.90;;;;;;4970860;28;20482;-91
2022/07/12 07:23:55;;;;;;;8.27;1.60;;;23.60;99.90;;;;;;4973928;28;20027;-92
2022/07/12 07:26:22;;;;;;;12.68;1.70;;;23.70;99.90;;;;;;4967711;28;20033;-90
2022/07/12 07:31:36;;;;;;;8.55;1.90;;;23.80;99.90;;;;;;4969480;28;20034;-93
2022/07/12 07:34:02;;;;;;;8.00;2.03;;;24.00;99.90;;;;;;4968127;28;20029;-83
2022/07/12 07:36:28;;;;;;;9.15;1.70;;;24.10;99.90;;;;;;4971217;28;20479;-85
2022/07/12 07:38:53;;;;;;;9.18;1.60;;;24.10;99.90;;;;;;4970547;28;20034;-90
2022/07/12 07:41:19;;;;;;;6.63;1.65;;;24.20;99.90;;;;;;4970967;28;20092;-83
2022/07/12 07:43:45;;;;;;;6.53;1.45;;;24.30;99.20;;;;;;4970297;28;20117;-87
2022/07/12 07:46:11;;;;;;;8.05;1.75;;;24.40;98.60;;;;;;4970412;28;20023;-89
2022/07/12 07:48:36;;;;;;;11.90;1.90;;;24.50;98.70;;;;;;4970911;28;20027;-93
2022/07/12 07:51:02;;;;;;;6.40;1.50;;;24.60;98.80;;;;;;4970404;28;20061;-92
2022/07/12 07:53:28;;;;;;;6.72;1.70;;;24.60;98.30;;;;;;4970651;28;20030;-83
2022/07/12 07:55:54;;;;;;;3.97;1.55;;;24.80;96.80;;;;;;4970249;28;20149;-90
2022/07/12 07:58:22;;;;;;;9.38;1.92;;;24.80;96.50;;;;;;4970862;28;20410;-94
2022/07/12 08:00:50;;;;;;;7.95;1.70;;;24.90;95.50;;;;;;4968040;28;20022;-94
2022/07/12 08:03:17;;;;;;;9.98;1.95;;;24.90;95.90;;;;;;4969929;28;20030;-82
2022/07/12 08:05:42;;;;;;;5.45;1.48;;;25.00;95.10;;;;;;4969618;28;20098;-82
2022/07/12 08:08:08;;;;;;;11.40;1.73;;;25.10;95.40;;;;;;4969657;28;20108;-82
2022/07/12 08:10:34;;;;;;;8.95;1.60;;;25.20;95.80;;;;;;4969279;28;20055;-82
2022/07/12 08:12:59;;;;;;;9.55;1.33;;;25.30;96.30;;;;;;4969008;28;20030;-93
2022/07/12 08:15:25;;;;;;;5.68;1.58;;;25.50;93.90;;;;;;4969122;28;20026;-81
2022/07/12 08:17:52;;;;;;;8.13;1.40;;;25.60;94.10;;;;;;4970132;28;20026;-82
2022/07/12 08:20:18;;;;;;;12.93;1.50;;;25.80;92.90;;;;;;4970195;28;20033;-93
2022/07/12 08:22:45;;;;;;;10.35;1.35;;;25.80;93.50;;;;;;4968713;28;20506;-93
2022/07/12 08:25:12;;;;;;;6.82;1.42;;;26.00;93.00;;;;;;4970011;28;20027;-93
2022/07/12 08:27:38;;;;;;;7.00;1.30;;;26.20;93.00;;;;;;4968869;28;20145;-90
2022/07/12 08:30:04;;;;;;;12.25;1.30;;;26.30;90.20;;;;;;4969673;28;20102;-89
2022/07/12 08:32:30;;;;;;;7.57;1.30;;;26.30;87.80;;;;;;4969524;28;20490;-82
2022/07/12 08:34:55;;;;;;;6.28;1.30;;;26.40;88.60;;;;;;4971193;28;20026;-88
2022/07/12 08:37:22;;;;;;;9.93;1.67;;;26.40;86.40;;;;;;4983130;28;20022;-83
2022/07/12 08:39:48;;;;;;;2.63;1.35;;;26.50;86.60;;;;;;4981792;28;20049;-83
2022/07/12 08:42:16;;;;;;;6.55;1.70;;;26.60;81.30;;;;;;4987933;28;20062;-83
2022/07/12 08:44:42;;;;;;;8.02;1.63;;;26.70;85.80;;;;;;4970153;28;20082;-82
2022/07/12 08:47:08;;;;;;;8.10;1.60;;;26.80;83.20;;;;;;4969072;28;20545;-82
2022/07/12 08:49:35;;;;;;;8.88;1.50;;;26.80;84.10;;;;;;4968863;28;20038;-83
2022/07/12 08:52:24;;;;;;;10.70;1.70;;;26.90;81.40;;;;;;4968909;28;20026;-83
2022/07/12 08:54:50;;;;;;;9.70;1.40;;;27.10;81.30;;;;;;4967448;28;20019;-83
2022/07/12 08:57:30;;;;;;;20.25;2.08;;;27.10;80.30;;;;;;4983278;28;20054;-83
2022/07/12 09:00:00;;;;;;;11.60;1.50;;;27.10;78.30;;;;;;4967355;28;20038;-81
2022/07/12 09:02:29;;;;;;;5.72;1.55;;;27.20;76.20;;;;;;4968692;28;20125;-81
2022/07/12 09:05:08;;;;;;;5.75;1.55;;;27.40;78.70;;;;;;4971206;28;20074;-81
2022/07/12 09:07:36;;;;;;;6.82;1.50;;;27.50;78.30;;;;;;4973493;28;20022;-81
2022/07/12 09:10:07;;;;;;;5.90;1.60;;;27.60;77.40;;;;;;4975390;28;20581;-85
2022/07/12 09:12:36;;;;;;;7.68;1.50;;;27.60;76.30;;;;;;4972055;28;20094;-91
2022/07/12 09:15:17;;;;;;;13.13;1.80;;;27.70;73.80;;;;;;4972365;28;20037;-80
2022/07/12 09:18:00;;;;;;;2.47;1.40;;;27.60;71.40;;;;;;4970255;28;20422;-93
2022/07/12 09:20:36;;;;;;;5.05;1.48;;;27.70;75.90;;;;;;4970033;28;20070;-82
2022/07/12 09:23:08;;;;;;;6.32;1.90;;;27.80;71.00;;;;;;4970399;28;20023;-90
2022/07/12 09:25:34;;;;;;;2.90;1.30;;;27.90;71.10;;;;;;4972200;28;20149;-89
2022/07/12 09:28:08;;;;;;;7.00;1.40;;;27.90;72.00;;;;;;4972567;28;20031;-84
2022/07/12 09:30:37;;;;;;;3.67;1.33;;;27.90;68.80;;;;;;4972747;28;20030;-83
2022/07/12 09:36:06;;;;;;;8.77;1.70;;;28.20;71.80;;;;;;4975604;28;20042;-82
2022/07/12 09:38:33;;;;;;;8.73;1.58;;;28.30;70.10;;;;;;4976520;28;20506;-81
2022/07/12 09:40:59;;;;;;;5.00;1.67;;;28.40;69.00;;;;;;4991013;28;20035;-83
2022/07/12 09:43:26;;;;;;;9.73;1.58;;;28.40;67.00;;;;;;4976772;28;20023;-81
2022/07/12 09:45:52;;;;;;;6.63;1.40;;;28.20;62.80;;;;;;4977680;28;20026;-94
2022/07/12 09:48:20;;;;;;;7.15;1.42;;;28.20;65.10;;;;;;4976852;28;20262;-82
2022/07/12 09:50:50;;;;;;;5.35;1.27;;;28.30;68.00;;;;;;4975296;28;20207;-82
2022/07/12 09:53:31;;;;;;;4.30;1.30;;;28.50;65.40;;;;;;4976585;28;20034;-94
2022/07/12 09:55:58;;;;;;;4.78;1.52;;;28.40;58.30;;;;;;4976314;28;20027;-81
2022/07/12 09:58:31;;;;;;;6.40;1.40;;;28.30;59.70;;;;;;4976247;28;20039;-94
2022/07/12 10:01:02;;;;;;;7.40;1.38;;;28.20;62.00;;;;;;4976595;28;20019;-82
2022/07/12 10:03:31;;;;;;;8.90;1.60;;;28.20;60.90;;;;;;4976887;28;20022;-93
2022/07/12 10:05:59;;;;;;;7.65;1.55;;;28.20;61.70;;;;;;4977003;28;20027;-82
2022/07/12 10:08:26;;;;;;;4.55;1.60;;;28.50;59.60;;;;;;4976026;28;20031;-87
2022/07/12 10:10:51;;;;;;;9.32;1.40;;;28.70;64.50;;;;;;4975688;28;20027;-90
2022/07/12 10:13:20;;;;;;;9.25;1.58;;;28.80;59.20;;;;;;4975289;28;20081;-92
2022/07/12 10:15:47;;;;;;;6.22;1.60;;;29.00;61.30;;;;;;4975868;28;20471;-93
2022/07/12 10:18:17;;;;;;;3.58;1.10;;;28.80;50.90;;;;;;4972697;28;20022;-91
2022/07/12 10:20:44;;;;;;;4.53;1.30;;;28.90;60.60;;;;;;4973086;28;20081;-81
2022/07/12 10:23:30;;;;;;;3.03;1.30;;;28.90;58.20;;;;;;4972113;28;20027;-87
2022/07/12 10:25:57;;;;;;;3.70;1.30;;;29.10;58.80;;;;;;4972613;28;20107;-88
2022/07/12 10:28:23;;;;;;;2.17;1.02;;;29.10;57.80;;;;;;4974518;28;20122;-83
2022/07/12 10:30:50;;;;;;;4.63;1.30;;;29.30;58.10;;;;;;4988080;28;20058;-83
2022/07/12 10:33:23;;;;;;;3.72;1.30;;;29.20;55.70;;;;;;4973144;28;20041;-83
2022/07/12 10:36:05;;;;;;;4.75;1.25;;;29.20;55.70;;;;;;4973036;28;20023;-91
2022/07/12 10:38:31;;;;;;;7.70;1.50;;;29.00;50.50;;;;;;4987951;28;20051;-94
2022/07/12 10:40:57;;;;;;;8.80;1.10;;;29.00;52.60;;;;;;4972520;28;20360;-91
2022/07/12 10:46:21;;;;;;;7.15;1.25;;;29.30;55.00;;;;;;4972750;28;20033;-89
2022/07/12 10:48:47;;;;;;;7.13;1.77;;;29.50;56.00;;;;;;4972960;28;20035;-91
2022/07/12 10:51:20;;;;;;;3.10;1.20;;;29.40;49.30;;;;;;4973252;28;20029;-90
2022/07/12 10:53:48;;;;;;;7.93;1.40;;;29.40;53.70;;;;;;4972918;28;20051;-91
2022/07/12 10:56:27;;;;;;;2.80;1.20;;;29.40;50.70;;;;;;4972190;28;20019;-90
2022/07/12 10:58:57;;;;;;;12.68;1.20;;;29.40;49.10;;;;;;4973336;28;20039;-89
2022/07/12 11:01:25;;;;;;;9.63;1.40;;;29.40;46.00;;;;;;4973067;28;20554;-86
2022/07/12 11:04:10;;;;;;;4.90;1.20;;;29.40;52.80;;;;;;4972577;28;20034;-88
2022/07/12 11:06:38;;;;;;;3.42;1.10;;;29.60;49.70;;;;;;4987360;28;20038;-82
2022/07/12 11:09:09;;;;;;;2.17;0.93;;;29.60;48.60;;;;;;4972151;28;20027;-81
2022/07/12 11:11:44;;;;;;;2.90;1.13;;;29.70;47.60;;;;;;4971553;28;20023;-81
2022/07/12 11:14:11;;;;;;;2.65;1.10;;;29.60;43.60;;;;;;4972225;28;20483;-82
2022/07/12 11:16:44;;;;;;;2.22;1.13;;;29.50;41.90;;;;;;4972640;28;20050;-86
2022/07/12 11:19:10;;;;;;;6.30;1.15;;;29.20;41.20;;;;;;4972794;28;20049;-83
2022/07/12 11:21:35;;;;;;;4.53;1.38;;;29.20;44.10;;;;;;4977322;28;20035;-82
2022/07/12 11:24:02;;;;;;;3.85;1.10;;;29.40;46.10;;;;;;4983449;28;20030;-83
2022/07/12 11:26:32;;;;;;;4.43;1.20;;;29.50;39.60;;;;;;4980010;28;20129;-82
2022/07/12 11:28:58;;;;;;;1.27;1.10;;;29.60;43.90;;;;;;4979547;28;20031;-88
2022/07/12 11:31:25;;;;;;;4.60;1.30;;;29.60;43.10;;;;;;4972810;28;20387;-83
2022/07/12 11:33:51;;;;;;;4.40;1.00;;;29.60;46.20;;;;;;4972127;28;20031;-90
2022/07/12 11:36:18;;;;;;;2.72;1.20;;;29.70;45.10;;;;;;4972046;28;20037;-93
2022/07/12 11:38:46;;;;;;;7.93;1.15;;;29.90;46.20;;;;;;4972100;28;20074;-92
2022/07/12 11:41:14;;;;;;;4.00;1.00;;;29.90;42.00;;;;;;4971482;28;20026;-91
2022/07/12 11:43:40;;;;;;;2.67;1.27;;;29.90;44.10;;;;;;4972046;28;20070;-93
2022/07/12 11:46:07;;;;;;;3.78;1.35;;;29.90;44.30;;;;;;4972526;28;20096;-92
2022/07/12 11:48:35;;;;;;;3.60;1.20;;;30.00;44.20;;;;;;4971744;28;20101;-89
2022/07/12 11:51:08;;;;;;;1.75;1.13;;;30.10;44.30;;;;;;4971980;28;20031;-82
2022/07/12 11:53:35;;;;;;;1.23;1.10;;;29.90;39.70;;;;;;4971728;28;20513;-88
2022/07/12 11:56:03;;;;;;;4.50;1.10;;;29.90;42.50;;;;;;4971027;28;20019;-83
2022/07/12 11:58:32;;;;;;;2.40;1.10;;;29.90;40.10;;;;;;4972165;28;20039;-93
2022/07/12 12:00:58;;;;;;;3.58;1.05;;;30.10;43.10;;;;;;4971455;28;20019;-82
2022/07/12 12:03:25;;;;;;;1.88;1.00;;;30.10;42.00;;;;;;4971399;28;20053;-83
2022/07/12 12:05:55;;;;;;;5.35;1.23;;;30.10;42.00;;;;;;4970353;28;20430;-82
2022/07/12 12:08:21;;;;;;;1.52;1.00;;;30.20;39.30;;;;;;4986565;28;20057;-82
2022/07/12 12:10:56;;;;;;;3.55;1.20;;;30.20;42.40;;;;;;4970453;28;20435;-83
2022/07/12 12:13:22;;;;;;;2.72;1.10;;;30.20;41.90;;;;;;4971425;28;20026;-93
2022/07/12 12:15:55;;;;;;;4.18;1.00;;;30.20;42.30;;;;;;4986211;28;20053;-83
2022/07/12 12:18:35;;;;;;;7.68;1.08;;;30.20;40.90;;;;;;4970993;28;20038;-88
2022/07/12 12:21:04;;;;;;;1.98;0.98;;;30.20;41.50;;;;;;4971609;28;20023;-83
2022/07/12 12:23:31;;;;;;;4.53;1.00;;;30.30;41.50;;;;;;4971796;28;20050;-82
2022/07/12 12:26:23;;;;;;;1.02;0.80;;;30.40;40.50;;;;;;4969975;28;20375;-82
2022/07/12 12:28:53;;;;;;;2.92;1.02;;;30.40;40.50;;;;;;4971141;28;20046;-82
2022/07/12 12:31:23;;;;;;;4.00;1.10;;;30.50;41.20;;;;;;4970995;28;20023;-92
2022/07/12 12:33:56;;;;;;;1.73;1.02;;;30.30;35.40;;;;;;4971055;28;20031;-92
2022/07/12 12:36:35;;;;;;;5.68;1.10;;;30.20;35.80;;;;;;4971010;28;20388;-82
2022/07/12 12:39:01;;;;;;;1.77;1.20;;;30.20;37.90;;;;;;4971310;28;20043;-82
2022/07/12 12:41:29;;;;;;;1.48;0.95;;;30.20;37.00;;;;;;4970997;28;20483;-90
2022/07/12 12:44:03;;;;;;;4.03;0.88;;;30.20;36.70;;;;;;4970923;28;20045;-92
2022/07/12 12:46:45;;;;;;;1.90;1.13;;;30.20;35.00;;;;;;4971648;28;20033;-92
2022/07/12 12:49:11;;;;;;;4.40;1.08;;;30.10;36.10;;;;;;4970612;28;20033;-82
2022/07/12 12:51:54;;;;;;;1.67;0.98;;;30.00;33.30;;;;;;4970790;28;20022;-82
2022/07/12 12:54:33;;;;;;;1.45;0.80;;;30.10;34.60;;;;;;4969859;28;20039;-84
2022/07/12 12:56:59;;;;;;;4.95;1.15;;;30.30;35.90;;;;;;4986301;28;20038;-90
2022/07/12 12:59:24;;;;;;;2.50;1.00;;;30.30;36.80;;;;;;4971019;28;20043;-92
2022/07/12 13:01:50;;;;;;;1.35;0.98;;;30.40;36.20;;;;;;4970992;28;20050;-83
2022/07/12 13:04:16;;;;;;;7.32;1.17;;;30.50;35.10;;;;;;4972897;28;20074;-93